createdAt,value
2018-02-10T00:00:25.742Z,-1.45
2018-02-10T00:02:54.215Z,-1.43
2018-02-10T00:05:23.039Z,-1.45
2018-02-10T00:07:51.623Z,-1.49
2018-02-10T00:10:20.513Z,-1.46
2018-02-10T00:12:49.269Z,-1.41
2018-02-10T00:15:17.833Z,-1.42
2018-02-10T00:17:46.264Z,-1.40
2018-02-10T00:20:15.050Z,-1.37
2018-02-10T00:22:43.534Z,-1.41
2018-02-10T00:25:11.978Z,-1.42
2018-02-10T00:27:40.639Z,-1.42
2018-02-10T00:30:09.101Z,-1.37
2018-02-10T00:32:37.586Z,-1.38
2018-02-10T00:35:06.662Z,-1.33
2018-02-10T00:37:35.091Z,-1.34
2018-02-10T00:40:03.592Z,-1.38
2018-02-10T00:42:32.202Z,-1.35
2018-02-10T00:45:00.654Z,-1.47
2018-02-10T00:47:29.070Z,-1.40
2018-02-10T00:49:57.646Z,-1.38
2018-02-10T00:52:26.180Z,-1.41
2018-02-10T00:54:54.764Z,-1.41
2018-02-10T00:57:23.940Z,-1.43
2018-02-10T00:59:52.460Z,-1.39
2018-02-10T01:02:20.946Z,-1.51
2018-02-10T01:04:49.632Z,-1.44
2018-02-10T01:07:19.243Z,-1.43
2018-02-10T01:09:47.820Z,-1.42
2018-02-10T01:12:17.789Z,-1.42
2018-02-10T01:14:46.213Z,-1.52
2018-02-10T01:17:14.697Z,-1.48
2018-02-10T01:19:43.710Z,-1.46
2018-02-10T01:22:12.134Z,-1.53
2018-02-10T01:24:40.578Z,-1.43
2018-02-10T01:27:09.147Z,-1.51
2018-02-10T01:29:37.573Z,-1.44
2018-02-10T01:32:05.990Z,-1.44
2018-02-10T01:34:34.629Z,-1.49
2018-02-10T01:37:03.041Z,-1.48
2018-02-10T01:39:31.578Z,-1.50
2018-02-10T01:42:00.697Z,-1.45
2018-02-10T01:44:29.147Z,-1.50
2018-02-10T01:46:57.627Z,-1.53
2018-02-10T01:49:26.411Z,-1.57
2018-02-10T01:51:54.989Z,-1.55
2018-02-10T01:54:23.508Z,-1.66
2018-02-10T01:56:52.793Z,-1.63
2018-02-10T01:59:21.462Z,-1.59
2018-02-10T02:01:49.918Z,-1.71
2018-02-10T02:04:18.693Z,-1.81
2018-02-10T02:06:47.109Z,-1.72
2018-02-10T02:09:15.549Z,-1.65
2018-02-10T02:11:44.200Z,-1.66
2018-02-10T02:14:12.641Z,-1.63
2018-02-10T02:16:41.066Z,-1.55
2018-02-10T02:19:09.818Z,-1.68
2018-02-10T02:21:38.288Z,-1.80
2018-02-10T02:24:06.727Z,-1.78
2018-02-10T02:26:36.125Z,-1.74
2018-02-10T02:29:04.586Z,-1.80
2018-02-10T02:31:33.044Z,-1.81
2018-02-10T02:34:02.336Z,-1.69
2018-02-10T02:36:30.772Z,-1.76
2018-02-10T02:38:59.781Z,-1.70
2018-02-10T02:41:28.312Z,-1.78
2018-02-10T02:43:56.791Z,-1.73
2018-02-10T02:46:25.443Z,-1.75
2018-02-10T02:48:55.392Z,-1.91
2018-02-10T02:51:23.937Z,-1.93
2018-02-10T02:53:52.415Z,-1.91
2018-02-10T02:56:22.232Z,-1.85
2018-02-10T02:58:51.156Z,-1.87
2018-02-10T03:01:19.726Z,-1.84
2018-02-10T03:03:48.286Z,-1.83
2018-02-10T03:06:16.900Z,-1.81
2018-02-10T03:08:45.358Z,-1.79
2018-02-10T03:11:13.865Z,-1.74
2018-02-10T03:13:42.304Z,-1.92
2018-02-10T03:16:10.726Z,-1.86
2018-02-10T03:18:40.062Z,-1.96
2018-02-10T03:21:08.503Z,-1.77
2018-02-10T03:23:36.950Z,-2.02
2018-02-10T03:26:06.015Z,-1.84
2018-02-10T03:28:34.449Z,-1.89
2018-02-10T03:31:02.876Z,-1.81
2018-02-10T03:33:31.489Z,-2.05
2018-02-10T03:35:59.922Z,-2.05
2018-02-10T03:38:28.404Z,-1.89
2018-02-10T03:40:57.705Z,-2.03
2018-02-10T03:43:26.293Z,-2.00
2018-02-10T03:45:54.770Z,-2.09
2018-02-10T03:48:23.973Z,-2.20
2018-02-10T03:50:52.543Z,-2.14
2018-02-10T03:53:21.239Z,-2.02
2018-02-10T03:55:49.933Z,-1.88
2018-02-10T03:58:18.413Z,-1.91
2018-02-10T04:00:46.870Z,-1.92
2018-02-10T04:03:16.503Z,-2.00
2018-02-10T04:05:45.976Z,-2.07
2018-02-10T04:08:14.416Z,-1.92
2018-02-10T04:10:43.219Z,-1.99
2018-02-10T04:13:11.629Z,-1.96
2018-02-10T04:15:40.102Z,-1.93
2018-02-10T04:18:08.592Z,-2.03
2018-02-10T04:20:37.029Z,-2.17
2018-02-10T04:23:05.452Z,-2.30
2018-02-10T04:25:33.934Z,-2.13
2018-02-10T04:28:02.369Z,-2.13
2018-02-10T04:30:30.870Z,-2.26
2018-02-10T04:32:59.872Z,-2.29
2018-02-10T04:35:28.364Z,-2.26
2018-02-10T04:37:57.059Z,-2.26
2018-02-10T04:40:26.148Z,-2.19
2018-02-10T04:42:54.731Z,-2.14
2018-02-10T04:45:23.231Z,-2.21
2018-02-10T04:47:52.203Z,-2.15
2018-02-10T04:50:20.708Z,-2.11
2018-02-10T04:52:49.185Z,-2.14
2018-02-10T04:55:17.714Z,-2.08
2018-02-10T04:57:46.179Z,-2.01
2018-02-10T05:00:14.610Z,-1.97
2018-02-10T05:02:43.083Z,-2.01
2018-02-10T05:05:11.561Z,-2.03
2018-02-10T05:07:40.046Z,-2.05
2018-02-10T05:10:08.576Z,-2.08
2018-02-10T05:12:37.009Z,-2.18
2018-02-10T05:15:05.491Z,-2.25
2018-02-10T05:17:34.612Z,-2.25
2018-02-10T05:20:03.088Z,-2.22
2018-02-10T05:22:31.513Z,-2.27
2018-02-10T05:25:00.032Z,-2.32
2018-02-10T05:27:28.641Z,-2.31
2018-02-10T05:29:57.224Z,-2.38
2018-02-10T05:32:25.837Z,-2.37
2018-02-10T05:34:54.306Z,-2.32
2018-02-10T05:37:22.857Z,-2.32
2018-02-10T05:39:51.705Z,-2.28
2018-02-10T05:42:20.423Z,-2.25
2018-02-10T05:44:48.849Z,-2.23
2018-02-10T05:47:17.457Z,-2.27
2018-02-10T05:49:45.889Z,-2.23
2018-02-10T05:52:14.306Z,-2.30
2018-02-10T05:54:43.336Z,-2.28
2018-02-10T05:57:11.770Z,-2.28
2018-02-10T05:59:41.132Z,-2.32
2018-02-10T06:02:09.768Z,-2.32
2018-02-10T06:04:38.251Z,-2.37
2018-02-10T06:07:06.679Z,-2.23
2018-02-10T06:09:35.263Z,-2.18
2018-02-10T06:12:03.821Z,-2.21
2018-02-10T06:14:32.279Z,-2.14
2018-02-10T06:17:02.162Z,-2.13
2018-02-10T06:19:30.621Z,-2.26
2018-02-10T06:21:59.231Z,-2.27
2018-02-10T06:24:28.505Z,-2.36
2018-02-10T06:26:57.192Z,-2.39
2018-02-10T06:29:25.720Z,-2.40
2018-02-10T06:31:54.613Z,-2.39
2018-02-10T06:34:23.168Z,-2.44
2018-02-10T06:36:51.714Z,-2.49
2018-02-10T06:39:20.454Z,-2.52
2018-02-10T06:41:48.945Z,-2.58
2018-02-10T06:44:17.394Z,-2.61
2018-02-10T06:46:46.777Z,-2.59
2018-02-10T06:49:15.661Z,-2.56
2018-02-10T06:51:44.096Z,-2.57
2018-02-10T06:54:12.915Z,-2.63
2018-02-10T06:56:41.484Z,-2.67
2018-02-10T06:59:09.973Z,-2.66
2018-02-10T07:01:38.923Z,-2.63
2018-02-10T07:04:07.384Z,-2.61
2018-02-10T07:06:35.854Z,-2.57
2018-02-10T07:09:04.512Z,-2.59
2018-02-10T07:11:33.022Z,-2.63
2018-02-10T07:14:01.593Z,-2.64
2018-02-10T07:16:30.274Z,-2.62
2018-02-10T07:18:58.812Z,-2.59
2018-02-10T07:21:27.513Z,-2.64
2018-02-10T07:23:56.184Z,-2.64
2018-02-10T07:26:24.873Z,-2.66
2018-02-10T07:28:53.572Z,-2.70
2018-02-10T07:31:22.565Z,-2.65
2018-02-10T07:33:51.216Z,-2.65
2018-02-10T07:36:19.903Z,-2.63
2018-02-10T07:38:48.458Z,-2.60
2018-02-10T07:41:16.915Z,-2.63
2018-02-10T07:43:45.359Z,-2.57
2018-02-10T07:46:13.842Z,-2.54
2018-02-10T07:48:42.303Z,-2.53
2018-02-10T07:51:10.889Z,-2.49
2018-02-10T07:53:39.442Z,-2.45
2018-02-10T07:56:07.889Z,-2.38
2018-02-10T07:58:36.372Z,-2.39
2018-02-10T08:01:05.909Z,-2.49
2018-02-10T08:03:34.377Z,-2.42
2018-02-10T08:06:02.912Z,-2.38
2018-02-10T08:08:31.485Z,-2.33
2018-02-10T08:10:59.968Z,-2.32
2018-02-10T08:13:29.269Z,-2.34
2018-02-10T08:15:59.113Z,-2.31
2018-02-10T08:18:27.695Z,-2.26
2018-02-10T08:20:56.326Z,-2.19
2018-02-10T08:23:24.867Z,-2.18
2018-02-10T08:25:53.445Z,-2.03
2018-02-10T08:28:22.204Z,-1.93
2018-02-10T08:30:51.709Z,-1.92
2018-02-10T08:33:20.942Z,-1.83
2018-02-10T08:35:49.500Z,-1.78
2018-02-10T08:38:18.350Z,-1.67
2018-02-10T08:40:46.832Z,-1.44
2018-02-10T08:43:15.274Z,-1.05
2018-02-10T08:45:44.111Z,-0.40
2018-02-10T08:48:12.592Z,0.04
2018-02-10T08:50:41.074Z,0.49
2018-02-10T08:53:10.326Z,0.96
2018-02-10T08:55:38.857Z,1.03
2018-02-10T08:58:07.441Z,1.24
2018-02-10T09:00:36.073Z,1.40
2018-02-10T09:03:04.576Z,1.93
2018-02-10T09:05:33.041Z,2.06
2018-02-10T09:08:01.978Z,2.25
2018-02-10T09:10:30.709Z,3.05
2018-02-10T09:12:59.248Z,3.37
2018-02-10T09:15:28.326Z,3.65
2018-02-10T09:17:57.620Z,3.90
2018-02-10T09:20:26.225Z,4.38
2018-02-10T09:22:56.118Z,4.56
2018-02-10T09:25:24.860Z,4.41
2018-02-10T09:27:54.058Z,4.66
2018-02-10T09:30:22.966Z,4.82
2018-02-10T09:32:51.705Z,4.96
2018-02-10T09:35:20.222Z,4.76
2018-02-10T09:37:49.560Z,4.33
2018-02-10T09:40:18.819Z,4.49
2018-02-10T09:42:47.320Z,4.13
2018-02-10T09:45:16.052Z,4.04
2018-02-10T09:47:44.509Z,4.08
2018-02-10T09:50:12.960Z,4.16
2018-02-10T09:52:42.017Z,3.98
2018-02-10T09:55:10.482Z,4.08
2018-02-10T09:57:38.918Z,4.32
2018-02-10T10:00:08.245Z,4.29
2018-02-10T10:02:36.669Z,4.30
2018-02-10T10:05:05.250Z,4.90
2018-02-10T10:07:34.511Z,4.73
2018-02-10T10:10:03.023Z,4.70
2018-02-10T10:12:31.503Z,4.97
2018-02-10T10:15:00.060Z,5.08
2018-02-10T10:17:28.592Z,5.44
2018-02-10T10:19:57.700Z,5.28
2018-02-10T10:22:26.961Z,5.45
2018-02-10T10:24:55.488Z,5.25
2018-02-10T10:27:24.137Z,5.38
2018-02-10T10:29:53.349Z,5.44
2018-02-10T10:32:22.104Z,5.82
2018-02-10T10:34:51.517Z,5.96
2018-02-10T10:37:20.626Z,7.33
2018-02-10T10:39:49.186Z,6.84
2018-02-10T10:42:17.617Z,6.57
2018-02-10T10:44:46.965Z,7.86
2018-02-10T10:47:15.424Z,8.78
2018-02-10T10:49:43.837Z,8.60
2018-02-10T10:52:12.575Z,8.50
2018-02-10T10:54:41.054Z,8.23
2018-02-10T10:57:09.524Z,8.59
2018-02-10T10:59:38.215Z,9.03
2018-02-10T11:02:06.642Z,9.30
2018-02-10T11:04:35.123Z,8.49
2018-02-10T11:07:04.527Z,8.71
2018-02-10T11:09:33.007Z,8.28
2018-02-10T11:12:01.916Z,7.99
2018-02-10T11:14:30.499Z,7.70
2018-02-10T11:16:58.976Z,7.34
2018-02-10T11:19:27.759Z,7.30
2018-02-10T11:21:56.553Z,6.83
2018-02-10T11:24:25.075Z,6.64
2018-02-10T11:26:53.570Z,5.79
2018-02-10T11:29:23.913Z,5.21
2018-02-10T11:31:52.530Z,4.95
2018-02-10T11:34:21.332Z,4.51
2018-02-10T11:36:50.618Z,4.64
2018-02-10T11:39:19.129Z,3.94
2018-02-10T11:41:47.545Z,4.06
2018-02-10T11:44:16.484Z,4.19
2018-02-10T11:46:44.942Z,3.99
2018-02-10T11:49:13.397Z,3.85
2018-02-10T11:51:42.631Z,3.69
2018-02-10T11:54:11.045Z,3.42
2018-02-10T11:56:39.475Z,3.44
2018-02-10T11:59:07.946Z,3.50
2018-02-10T12:01:36.386Z,3.43
2018-02-10T12:04:04.825Z,3.31
2018-02-10T12:06:33.297Z,3.15
2018-02-10T12:09:01.742Z,3.18
2018-02-10T12:11:30.583Z,3.18
2018-02-10T12:13:59.585Z,3.23
2018-02-10T12:16:28.268Z,3.26
2018-02-10T12:18:56.846Z,3.18
2018-02-10T12:21:26.168Z,3.03
2018-02-10T12:23:54.872Z,2.94
2018-02-10T12:26:23.389Z,3.26
2018-02-10T12:28:51.930Z,3.38
2018-02-10T12:31:21.493Z,3.34
2018-02-10T12:33:50.352Z,3.25
2018-02-10T12:36:19.013Z,3.45
2018-02-10T12:38:47.489Z,3.43
2018-02-10T12:41:15.929Z,3.42
2018-02-10T12:43:44.690Z,3.41
2018-02-10T12:46:13.141Z,3.35
2018-02-10T12:51:45.393Z,3.08
2018-02-10T12:54:14.918Z,3.09
2018-02-10T12:56:43.385Z,3.20
2018-02-10T12:59:12.638Z,3.19
2018-02-10T13:01:41.196Z,3.17
2018-02-10T13:04:09.696Z,3.27
2018-02-10T13:06:38.149Z,3.31
2018-02-10T13:09:06.614Z,3.42
2018-02-10T13:11:35.190Z,3.47
2018-02-10T13:14:03.697Z,3.49
2018-02-10T13:16:32.721Z,3.58
2018-02-10T13:19:01.244Z,3.61
2018-02-10T13:21:29.972Z,3.40
2018-02-10T13:23:58.832Z,3.44
2018-02-10T13:26:28.287Z,3.47
2018-02-10T13:28:56.818Z,3.45
2018-02-10T13:31:25.418Z,3.28
2018-02-10T13:33:54.906Z,3.37
2018-02-10T13:36:23.452Z,3.43
2018-02-10T13:38:52.681Z,3.48
2018-02-10T13:41:21.572Z,3.50
2018-02-10T13:43:50.125Z,3.47
2018-02-10T13:46:18.820Z,3.57
2018-02-10T13:48:47.250Z,3.48
2018-02-10T13:51:15.692Z,3.68
2018-02-10T13:53:44.191Z,3.86
2018-02-10T13:56:12.748Z,3.93
2018-02-10T13:58:41.369Z,4.05
2018-02-10T14:01:10.241Z,4.00
2018-02-10T14:03:38.701Z,4.10
2018-02-10T14:06:07.129Z,4.06
2018-02-10T14:08:35.661Z,3.83
2018-02-10T14:11:04.114Z,3.91
2018-02-10T14:13:32.533Z,3.88
2018-02-10T14:16:01.050Z,4.03
2018-02-10T14:18:29.613Z,3.98
2018-02-10T14:20:58.145Z,4.04
2018-02-10T14:23:27.968Z,4.06
2018-02-10T14:25:56.749Z,3.88
2018-02-10T14:28:25.235Z,3.97
2018-02-10T14:30:54.151Z,4.05
2018-02-10T14:33:22.843Z,3.97
2018-02-10T14:35:51.439Z,3.89
2018-02-10T14:38:21.393Z,4.07
2018-02-10T14:40:50.462Z,4.00
2018-02-10T14:43:18.897Z,3.93
2018-02-10T14:45:47.354Z,3.85
2018-02-10T14:48:15.815Z,3.79
2018-02-10T14:50:44.230Z,3.83
2018-02-10T14:53:12.908Z,3.81
2018-02-10T14:55:41.332Z,3.75
2018-02-10T14:58:09.881Z,3.68
2018-02-10T15:00:39.045Z,3.74
2018-02-10T15:03:07.455Z,3.65
2018-02-10T15:05:35.863Z,3.56
2018-02-10T15:08:04.472Z,3.40
2018-02-10T15:10:32.997Z,3.33
2018-02-10T15:13:01.458Z,3.32
2018-02-10T15:15:29.948Z,3.32
2018-02-10T15:17:58.947Z,3.24
2018-02-10T15:20:27.553Z,3.21
2018-02-10T15:22:56.526Z,3.19
2018-02-10T15:25:25.098Z,3.13
2018-02-10T15:27:53.625Z,2.99
2018-02-10T15:30:34.241Z,2.98
2018-02-10T15:33:14.382Z,2.97
2018-02-10T15:35:43.209Z,3.01
2018-02-10T15:38:11.621Z,2.95
2018-02-10T15:40:40.153Z,2.90
2018-02-10T15:43:08.652Z,2.89
2018-02-10T15:45:37.088Z,2.89
2018-02-10T15:48:05.542Z,2.86
2018-02-10T15:50:35.480Z,2.86
2018-02-10T15:53:03.964Z,2.83
2018-02-10T15:55:32.387Z,2.87
2018-02-10T15:58:01.540Z,2.88
2018-02-10T16:00:30.173Z,2.87
2018-02-10T16:02:58.921Z,2.94
2018-02-10T16:05:27.957Z,2.96
2018-02-10T16:07:56.729Z,2.94
2018-02-10T16:10:25.352Z,3.01
2018-02-10T16:12:54.561Z,2.99
2018-02-10T16:15:23.476Z,3.01
2018-02-10T16:17:52.182Z,3.03
2018-02-10T16:20:21.323Z,2.95
2018-02-10T16:22:49.787Z,2.87
2018-02-10T16:25:18.323Z,2.77
2018-02-10T16:27:47.240Z,2.77
2018-02-10T16:30:15.687Z,2.78
2018-02-10T16:32:44.149Z,2.77
2018-02-10T16:35:13.248Z,2.74
2018-02-10T16:37:41.667Z,2.82
2018-02-10T16:40:10.103Z,2.86
2018-02-10T16:42:38.991Z,2.82
2018-02-10T16:45:07.415Z,2.79
2018-02-10T16:47:35.849Z,2.84
2018-02-10T16:50:04.918Z,2.73
2018-02-10T16:52:34.149Z,2.79
2018-02-10T16:55:02.644Z,2.78
2018-02-10T16:57:31.537Z,2.85
2018-02-10T16:59:59.993Z,2.84
2018-02-10T17:02:28.650Z,2.89
2018-02-10T17:04:57.238Z,2.85
2018-02-10T17:07:26.051Z,2.84
2018-02-10T17:09:54.951Z,2.83
2018-02-10T17:12:23.651Z,2.74
2018-02-10T17:14:52.107Z,2.75
2018-02-10T17:17:20.653Z,2.70
2018-02-10T17:19:49.504Z,2.60
2018-02-10T17:22:18.015Z,2.63
2018-02-10T17:24:46.465Z,2.60
2018-02-10T17:27:15.341Z,2.58
2018-02-10T17:29:43.770Z,2.64
2018-02-10T17:32:12.293Z,2.69
2018-02-10T17:34:41.312Z,2.77
2018-02-10T17:37:09.762Z,2.75
2018-02-10T17:39:38.276Z,2.70
2018-02-10T17:42:06.753Z,2.66
2018-02-10T17:44:35.209Z,2.68
2018-02-10T17:47:03.642Z,2.69
2018-02-10T17:49:32.357Z,2.69
2018-02-10T17:52:00.839Z,2.67
2018-02-10T17:54:29.384Z,2.74
2018-02-10T17:56:58.000Z,2.83
2018-02-10T17:59:26.449Z,2.82
2018-02-10T18:01:55.214Z,2.89
2018-02-10T18:04:24.720Z,2.94
2018-02-10T18:06:53.336Z,2.95
2018-02-10T18:09:21.882Z,3.00
2018-02-10T18:11:51.087Z,3.03
2018-02-10T18:14:19.838Z,2.99
2018-02-10T18:16:48.254Z,2.94
2018-02-10T18:19:17.001Z,2.89
2018-02-10T18:21:45.647Z,2.76
2018-02-10T18:24:14.076Z,2.73
2018-02-10T18:26:42.544Z,2.80
2018-02-10T18:29:10.992Z,2.61
2018-02-10T18:31:39.999Z,2.64
2018-02-10T18:34:08.601Z,2.62
2018-02-10T18:36:37.008Z,2.55
2018-02-10T18:39:05.540Z,2.48
2018-02-10T18:41:34.093Z,2.46
2018-02-10T18:44:02.553Z,2.48
2018-02-10T18:46:31.162Z,2.42
2018-02-10T18:48:59.697Z,2.38
2018-02-10T18:51:28.585Z,2.44
2018-02-10T18:53:57.078Z,2.43
2018-02-10T18:56:26.243Z,2.46
2018-02-10T18:58:55.154Z,2.53
2018-02-10T19:01:23.718Z,2.56
2018-02-10T19:03:53.659Z,2.59
2018-02-10T19:06:22.209Z,2.51
2018-02-10T19:08:50.856Z,2.59
2018-02-10T19:11:20.342Z,2.59
2018-02-10T19:13:48.849Z,2.48
2018-02-10T19:16:17.293Z,2.46
2018-02-10T19:18:46.247Z,2.44
2018-02-10T19:21:14.752Z,2.48
2018-02-10T19:23:43.235Z,2.46
2018-02-10T19:26:12.709Z,2.45
2018-02-10T19:28:41.153Z,2.41
2018-02-10T19:31:09.672Z,2.39
2018-02-10T19:33:38.207Z,2.26
2018-02-10T19:36:06.776Z,2.36
2018-02-10T19:38:36.317Z,2.29
2018-02-10T19:41:04.887Z,2.30
2018-02-10T19:43:33.439Z,2.36
2018-02-10T19:46:01.997Z,2.50
2018-02-10T19:48:31.099Z,2.44
2018-02-10T19:51:00.308Z,2.46
2018-02-10T19:53:29.412Z,2.49
2018-02-10T19:55:58.368Z,2.40
2018-02-10T19:58:26.965Z,2.42
2018-02-10T20:00:55.642Z,2.35
2018-02-10T20:03:24.770Z,2.42
2018-02-10T20:05:53.418Z,2.38
2018-02-10T20:08:21.988Z,2.48
2018-02-10T20:10:52.188Z,2.51
2018-02-10T20:13:20.640Z,2.57
2018-02-10T20:15:50.072Z,2.58
2018-02-10T20:18:18.696Z,2.53
2018-02-10T20:20:47.300Z,2.49
2018-02-10T20:23:15.716Z,2.45
2018-02-10T20:25:44.901Z,2.41
2018-02-10T20:28:13.396Z,2.44
2018-02-10T20:30:41.845Z,2.46
2018-02-10T20:33:11.532Z,2.46
2018-02-10T20:35:39.955Z,2.44
2018-02-10T20:38:08.399Z,2.36
2018-02-10T20:40:37.865Z,2.35
2018-02-10T20:43:06.351Z,2.35
2018-02-10T20:45:34.797Z,2.21
2018-02-10T20:48:03.304Z,2.18
2018-02-10T20:50:31.822Z,2.20
2018-02-10T20:53:00.552Z,2.17
2018-02-10T20:55:29.947Z,2.20
2018-02-10T20:57:58.699Z,2.21
2018-02-10T21:00:27.229Z,2.17
2018-02-10T21:02:56.376Z,2.15
2018-02-10T21:05:24.915Z,2.14
2018-02-10T21:07:53.407Z,2.16
2018-02-10T21:10:22.532Z,2.18
2018-02-10T21:12:51.642Z,2.28
2018-02-10T21:15:20.372Z,2.25
2018-02-10T21:17:49.081Z,2.28
2018-02-10T21:20:17.513Z,2.33
2018-02-10T21:22:45.962Z,2.36
2018-02-10T21:25:15.736Z,2.29
2018-02-10T21:27:44.318Z,2.34
2018-02-10T21:30:12.781Z,2.35
2018-02-10T21:32:42.138Z,2.26
2018-02-10T21:35:10.598Z,2.24
2018-02-10T21:37:39.094Z,2.23
2018-02-10T21:40:08.008Z,2.27
2018-02-10T21:42:36.628Z,2.22
2018-02-10T21:45:05.115Z,2.14
2018-02-10T21:47:33.874Z,2.21
2018-02-10T21:50:02.292Z,2.22
2018-02-10T21:52:30.754Z,2.29
2018-02-10T21:54:59.957Z,2.30
2018-02-10T21:57:28.959Z,2.32
2018-02-10T21:59:58.063Z,2.23
2018-02-10T22:02:27.056Z,2.23
2018-02-10T22:04:55.663Z,2.23
2018-02-10T22:07:24.468Z,2.23
2018-02-10T22:09:53.302Z,2.20
2018-02-10T22:12:22.200Z,2.21
2018-02-10T22:14:50.701Z,2.20
2018-02-10T22:17:19.252Z,2.24
2018-02-10T22:19:47.732Z,2.29
2018-02-10T22:22:16.181Z,2.35
2018-02-10T22:24:44.886Z,2.34
2018-02-10T22:27:13.306Z,2.27
2018-02-10T22:29:41.707Z,2.28
2018-02-10T22:32:10.188Z,2.28
2018-02-10T22:34:38.617Z,2.27
2018-02-10T22:37:07.057Z,2.28
2018-02-10T22:39:35.532Z,2.31
2018-02-10T22:42:03.977Z,2.36
2018-02-10T22:44:32.419Z,2.35
2018-02-10T22:47:00.951Z,2.41
2018-02-10T22:49:29.453Z,2.39
2018-02-10T22:51:57.913Z,2.46
2018-02-10T22:54:26.546Z,2.44
2018-02-10T22:56:55.077Z,2.44
2018-02-10T22:59:23.761Z,2.42
2018-02-10T23:01:52.434Z,2.45
2018-02-10T23:04:20.956Z,2.43
2018-02-10T23:06:49.439Z,2.40
2018-02-10T23:09:18.814Z,2.41
2018-02-10T23:11:47.292Z,2.36
2018-02-10T23:14:15.771Z,2.41
2018-02-10T23:16:45.422Z,2.40
2018-02-10T23:19:13.949Z,2.43
2018-02-10T23:21:42.576Z,2.41
2018-02-10T23:24:11.949Z,2.43
2018-02-10T23:26:40.368Z,2.42
2018-02-10T23:29:08.851Z,2.39
2018-02-10T23:31:38.265Z,2.33
2018-02-10T23:34:06.714Z,2.38
2018-02-10T23:36:35.220Z,2.32
2018-02-10T23:39:03.881Z,2.30
2018-02-10T23:41:32.364Z,2.35
2018-02-10T23:44:00.833Z,2.38
2018-02-10T23:46:29.656Z,2.36
2018-02-10T23:48:58.383Z,2.36
2018-02-10T23:51:26.862Z,2.38
2018-02-10T23:53:55.652Z,2.37
2018-02-10T23:56:24.427Z,2.30
2018-02-10T23:58:52.970Z,2.32
